sensor_id;sensor_type;location;lat;lon;timestamp;P1;durP1;ratioP1;P2;durP2;ratioP2
21337;SDS011;72379;50.880;4.350;2024-03-08T00:02:14;30.27;;;12.47;;
21337;SDS011;72379;50.880;4.350;2024-03-08T00:04:40;30.03;;;11.00;;
21337;SDS011;72379;50.880;4.350;2024-03-08T00:07:05;34.70;;;15.50;;
21337;SDS011;72379;50.880;4.350;2024-03-08T00:09:32;19.40;;;8.03;;
21337;SDS011;72379;50.880;4.350;2024-03-08T00:11:58;35.50;;;14.67;;
21337;SDS011;72379;50.880;4.350;2024-03-08T00:14:23;33.03;;;14.20;;
21337;SDS011;72379;50.880;4.350;2024-03-08T00:16:49;32.27;;;15.03;;
21337;SDS011;72379;50.880;4.350;2024-03-08T00:19:17;35.37;;;15.10;;
21337;SDS011;72379;50.880;4.350;2024-03-08T00:21:43;32.37;;;15.00;;
21337;SDS011;72379;50.880;4.350;2024-03-08T00:24:10;37.43;;;14.93;;
21337;SDS011;72379;50.880;4.350;2024-03-08T00:26:37;33.10;;;13.17;;
21337;SDS011;72379;50.880;4.350;2024-03-08T00:29:03;32.63;;;14.07;;
21337;SDS011;72379;50.880;4.350;2024-03-08T00:31:29;29.13;;;11.73;;
21337;SDS011;72379;50.880;4.350;2024-03-08T00:33:56;33.03;;;14.53;;
21337;SDS011;72379;50.880;4.350;2024-03-08T00:36:22;28.57;;;13.17;;
21337;SDS011;72379;50.880;4.350;2024-03-08T00:38:48;27.97;;;13.63;;
21337;SDS011;72379;50.880;4.350;2024-03-08T00:41:14;32.50;;;14.67;;
21337;SDS011;72379;50.880;4.350;2024-03-08T00:43:39;32.87;;;13.67;;
21337;SDS011;72379;50.880;4.350;2024-03-08T00:46:05;18.80;;;7.90;;
21337;SDS011;72379;50.880;4.350;2024-03-08T00:48:31;33.10;;;14.00;;
21337;SDS011;72379;50.880;4.350;2024-03-08T00:50:57;32.33;;;14.07;;
21337;SDS011;72379;50.880;4.350;2024-03-08T00:53:23;34.20;;;15.30;;
21337;SDS011;72379;50.880;4.350;2024-03-08T00:55:49;36.40;;;15.10;;
21337;SDS011;72379;50.880;4.350;2024-03-08T00:58:15;36.57;;;14.20;;
21337;SDS011;72379;50.880;4.350;2024-03-08T01:00:41;33.77;;;14.30;;
21337;SDS011;72379;50.880;4.350;2024-03-08T01:03:07;29.30;;;12.90;;
21337;SDS011;72379;50.880;4.350;2024-03-08T01:05:33;35.90;;;14.30;;
21337;SDS011;72379;50.880;4.350;2024-03-08T01:08:00;36.70;;;15.70;;
21337;SDS011;72379;50.880;4.350;2024-03-08T01:10:28;34.80;;;14.67;;
21337;SDS011;72379;50.880;4.350;2024-03-08T01:12:55;34.83;;;15.53;;
21337;SDS011;72379;50.880;4.350;2024-03-08T01:15:22;31.60;;;13.83;;
21337;SDS011;72379;50.880;4.350;2024-03-08T01:17:48;33.53;;;14.30;;
21337;SDS011;72379;50.880;4.350;2024-03-08T01:20:13;39.67;;;15.10;;
21337;SDS011;72379;50.880;4.350;2024-03-08T01:22:40;27.33;;;10.97;;
21337;SDS011;72379;50.880;4.350;2024-03-08T01:25:06;36.90;;;14.13;;
21337;SDS011;72379;50.880;4.350;2024-03-08T01:27:33;37.53;;;14.67;;
21337;SDS011;72379;50.880;4.350;2024-03-08T01:30:00;35.17;;;15.53;;
21337;SDS011;72379;50.880;4.350;2024-03-08T01:32:26;36.03;;;15.07;;
21337;SDS011;72379;50.880;4.350;2024-03-08T01:34:51;39.03;;;16.13;;
21337;SDS011;72379;50.880;4.350;2024-03-08T01:37:17;37.80;;;16.90;;
21337;SDS011;72379;50.880;4.350;2024-03-08T01:39:43;41.67;;;14.70;;
21337;SDS011;72379;50.880;4.350;2024-03-08T01:42:09;37.43;;;17.03;;
21337;SDS011;72379;50.880;4.350;2024-03-08T01:44:38;43.77;;;17.47;;
21337;SDS011;72379;50.880;4.350;2024-03-08T01:47:04;39.33;;;15.47;;
21337;SDS011;72379;50.880;4.350;2024-03-08T01:49:33;43.47;;;15.73;;
21337;SDS011;72379;50.880;4.350;2024-03-08T01:51:58;40.30;;;17.70;;
21337;SDS011;72379;50.880;4.350;2024-03-08T01:54:24;38.23;;;14.97;;
21337;SDS011;72379;50.880;4.350;2024-03-08T01:56:51;36.67;;;17.03;;
21337;SDS011;72379;50.880;4.350;2024-03-08T01:59:18;35.07;;;16.43;;
21337;SDS011;72379;50.880;4.350;2024-03-08T02:01:44;41.97;;;16.97;;
21337;SDS011;72379;50.880;4.350;2024-03-08T02:04:10;41.87;;;16.17;;
21337;SDS011;72379;50.880;4.350;2024-03-08T02:06:36;38.00;;;16.53;;
21337;SDS011;72379;50.880;4.350;2024-03-08T02:09:03;38.53;;;16.83;;
21337;SDS011;72379;50.880;4.350;2024-03-08T02:11:33;35.27;;;16.33;;
21337;SDS011;72379;50.880;4.350;2024-03-08T02:13:59;39.87;;;17.30;;
21337;SDS011;72379;50.880;4.350;2024-03-08T02:16:25;39.47;;;15.00;;
21337;SDS011;72379;50.880;4.350;2024-03-08T02:18:51;38.63;;;17.17;;
21337;SDS011;72379;50.880;4.350;2024-03-08T02:21:17;39.73;;;16.90;;
21337;SDS011;72379;50.880;4.350;2024-03-08T02:23:43;38.50;;;18.03;;
21337;SDS011;72379;50.880;4.350;2024-03-08T02:26:10;42.57;;;19.37;;
21337;SDS011;72379;50.880;4.350;2024-03-08T02:28:35;40.17;;;17.47;;
21337;SDS011;72379;50.880;4.350;2024-03-08T02:31:02;41.00;;;18.43;;
21337;SDS011;72379;50.880;4.350;2024-03-08T02:33:27;42.83;;;19.17;;
21337;SDS011;72379;50.880;4.350;2024-03-08T02:35:54;42.87;;;17.70;;
21337;SDS011;72379;50.880;4.350;2024-03-08T02:38:21;34.30;;;16.87;;
21337;SDS011;72379;50.880;4.350;2024-03-08T02:40:50;36.53;;;17.17;;
21337;SDS011;72379;50.880;4.350;2024-03-08T02:43:17;39.57;;;18.13;;
21337;SDS011;72379;50.880;4.350;2024-03-08T02:45:43;36.50;;;16.57;;
21337;SDS011;72379;50.880;4.350;2024-03-08T02:48:13;40.73;;;18.83;;
21337;SDS011;72379;50.880;4.350;2024-03-08T02:50:39;36.07;;;15.97;;
21337;SDS011;72379;50.880;4.350;2024-03-08T02:53:07;42.93;;;19.63;;
21337;SDS011;72379;50.880;4.350;2024-03-08T02:55:33;45.07;;;19.53;;
21337;SDS011;72379;50.880;4.350;2024-03-08T02:58:01;40.87;;;17.53;;
21337;SDS011;72379;50.880;4.350;2024-03-08T03:00:28;44.30;;;18.60;;
21337;SDS011;72379;50.880;4.350;2024-03-08T03:02:56;45.90;;;18.40;;
21337;SDS011;72379;50.880;4.350;2024-03-08T03:05:22;44.03;;;19.10;;
21337;SDS011;72379;50.880;4.350;2024-03-08T03:07:49;42.93;;;20.10;;
21337;SDS011;72379;50.880;4.350;2024-03-08T03:10:18;42.03;;;18.87;;
21337;SDS011;72379;50.880;4.350;2024-03-08T03:12:44;40.70;;;18.60;;
21337;SDS011;72379;50.880;4.350;2024-03-08T03:15:13;43.60;;;19.67;;
21337;SDS011;72379;50.880;4.350;2024-03-08T03:17:45;22.17;;;7.53;;
21337;SDS011;72379;50.880;4.350;2024-03-08T03:20:16;44.47;;;18.73;;
21337;SDS011;72379;50.880;4.350;2024-03-08T03:22:48;42.23;;;19.13;;
21337;SDS011;72379;50.880;4.350;2024-03-08T03:25:17;41.23;;;18.90;;
21337;SDS011;72379;50.880;4.350;2024-03-08T03:27:48;44.10;;;20.47;;
21337;SDS011;72379;50.880;4.350;2024-03-08T03:30:14;48.97;;;20.33;;
21337;SDS011;72379;50.880;4.350;2024-03-08T03:32:49;41.67;;;21.00;;
21337;SDS011;72379;50.880;4.350;2024-03-08T03:35:20;52.87;;;21.97;;
21337;SDS011;72379;50.880;4.350;2024-03-08T03:37:46;45.07;;;20.23;;
21337;SDS011;72379;50.880;4.350;2024-03-08T03:40:34;43.50;;;19.77;;
21337;SDS011;72379;50.880;4.350;2024-03-08T03:43:01;45.90;;;21.80;;
21337;SDS011;72379;50.880;4.350;2024-03-08T03:45:30;38.60;;;17.17;;
21337;SDS011;72379;50.880;4.350;2024-03-08T03:48:00;46.03;;;21.23;;
21337;SDS011;72379;50.880;4.350;2024-03-08T03:50:31;47.77;;;21.53;;
21337;SDS011;72379;50.880;4.350;2024-03-08T03:52:59;40.03;;;19.70;;
21337;SDS011;72379;50.880;4.350;2024-03-08T03:55:25;49.40;;;21.80;;
21337;SDS011;72379;50.880;4.350;2024-03-08T03:57:52;44.30;;;20.40;;
21337;SDS011;72379;50.880;4.350;2024-03-08T04:00:18;45.13;;;21.07;;
21337;SDS011;72379;50.880;4.350;2024-03-08T04:02:44;48.43;;;20.97;;
21337;SDS011;72379;50.880;4.350;2024-03-08T04:05:10;36.53;;;14.80;;
21337;SDS011;72379;50.880;4.350;2024-03-08T04:07:37;46.03;;;20.50;;
21337;SDS011;72379;50.880;4.350;2024-03-08T04:10:04;47.00;;;21.73;;
21337;SDS011;72379;50.880;4.350;2024-03-08T04:12:32;43.60;;;20.43;;
21337;SDS011;72379;50.880;4.350;2024-03-08T04:15:01;44.97;;;21.07;;
21337;SDS011;72379;50.880;4.350;2024-03-08T04:17:27;47.83;;;21.03;;
21337;SDS011;72379;50.880;4.350;2024-03-08T04:19:53;42.73;;;19.17;;
21337;SDS011;72379;50.880;4.350;2024-03-08T04:22:21;40.97;;;17.50;;
21337;SDS011;72379;50.880;4.350;2024-03-08T04:24:46;43.00;;;20.53;;
21337;SDS011;72379;50.880;4.350;2024-03-08T04:27:13;40.03;;;20.20;;
21337;SDS011;72379;50.880;4.350;2024-03-08T04:29:42;49.77;;;21.30;;
21337;SDS011;72379;50.880;4.350;2024-03-08T04:32:08;42.63;;;20.47;;
21337;SDS011;72379;50.880;4.350;2024-03-08T04:34:35;50.87;;;21.80;;
21337;SDS011;72379;50.880;4.350;2024-03-08T04:37:01;49.57;;;21.43;;
21337;SDS011;72379;50.880;4.350;2024-03-08T04:39:29;44.87;;;20.37;;
21337;SDS011;72379;50.880;4.350;2024-03-08T04:41:57;49.50;;;20.93;;
21337;SDS011;72379;50.880;4.350;2024-03-08T04:44:24;27.50;;;10.37;;
21337;SDS011;72379;50.880;4.350;2024-03-08T04:49:18;45.37;;;20.50;;
21337;SDS011;72379;50.880;4.350;2024-03-08T04:51:46;31.93;;;12.23;;
21337;SDS011;72379;50.880;4.350;2024-03-08T04:54:12;48.03;;;22.40;;
21337;SDS011;72379;50.880;4.350;2024-03-08T04:56:39;45.53;;;20.77;;
21337;SDS011;72379;50.880;4.350;2024-03-08T04:59:05;47.87;;;21.93;;
21337;SDS011;72379;50.880;4.350;2024-03-08T05:01:33;46.30;;;20.63;;
21337;SDS011;72379;50.880;4.350;2024-03-08T05:03:59;45.13;;;21.13;;
21337;SDS011;72379;50.880;4.350;2024-03-08T05:06:24;19.33;;;9.13;;
21337;SDS011;72379;50.880;4.350;2024-03-08T05:08:51;33.80;;;16.63;;
21337;SDS011;72379;50.880;4.350;2024-03-08T05:11:16;43.63;;;20.60;;
21337;SDS011;72379;50.880;4.350;2024-03-08T05:13:42;42.53;;;19.60;;
21337;SDS011;72379;50.880;4.350;2024-03-08T05:16:10;44.57;;;21.17;;
21337;SDS011;72379;50.880;4.350;2024-03-08T05:18:35;46.70;;;20.30;;
21337;SDS011;72379;50.880;4.350;2024-03-08T05:21:01;49.83;;;20.87;;
21337;SDS011;72379;50.880;4.350;2024-03-08T05:23:29;22.73;;;10.47;;
21337;SDS011;72379;50.880;4.350;2024-03-08T05:25:55;47.20;;;20.83;;
21337;SDS011;72379;50.880;4.350;2024-03-08T05:28:21;52.33;;;22.50;;
21337;SDS011;72379;50.880;4.350;2024-03-08T05:30:47;45.27;;;19.37;;
21337;SDS011;72379;50.880;4.350;2024-03-08T05:33:13;45.17;;;17.60;;
21337;SDS011;72379;50.880;4.350;2024-03-08T05:35:39;51.93;;;21.07;;
21337;SDS011;72379;50.880;4.350;2024-03-08T05:38:05;46.17;;;21.23;;
21337;SDS011;72379;50.880;4.350;2024-03-08T05:40:32;53.50;;;21.07;;
21337;SDS011;72379;50.880;4.350;2024-03-08T05:42:58;49.23;;;19.80;;
21337;SDS011;72379;50.880;4.350;2024-03-08T05:45:24;47.43;;;21.37;;
21337;SDS011;72379;50.880;4.350;2024-03-08T05:47:51;43.77;;;20.70;;
21337;SDS011;72379;50.880;4.350;2024-03-08T05:50:17;48.80;;;19.53;;
21337;SDS011;72379;50.880;4.350;2024-03-08T05:52:44;48.63;;;22.57;;
21337;SDS011;72379;50.880;4.350;2024-03-08T05:55:10;48.97;;;22.73;;
21337;SDS011;72379;50.880;4.350;2024-03-08T05:57:39;41.97;;;19.93;;
21337;SDS011;72379;50.880;4.350;2024-03-08T06:00:05;46.63;;;19.40;;
21337;SDS011;72379;50.880;4.350;2024-03-08T06:02:32;47.40;;;22.03;;
21337;SDS011;72379;50.880;4.350;2024-03-08T06:04:58;47.20;;;21.53;;
21337;SDS011;72379;50.880;4.350;2024-03-08T06:07:27;50.23;;;21.50;;
21337;SDS011;72379;50.880;4.350;2024-03-08T06:09:53;49.27;;;22.93;;
21337;SDS011;72379;50.880;4.350;2024-03-08T06:12:19;43.80;;;20.60;;
21337;SDS011;72379;50.880;4.350;2024-03-08T06:14:45;42.33;;;18.87;;
21337;SDS011;72379;50.880;4.350;2024-03-08T06:17:11;50.47;;;22.03;;
21337;SDS011;72379;50.880;4.350;2024-03-08T06:19:37;51.13;;;21.17;;
21337;SDS011;72379;50.880;4.350;2024-03-08T06:22:03;52.70;;;22.33;;
21337;SDS011;72379;50.880;4.350;2024-03-08T06:24:31;47.43;;;21.47;;
21337;SDS011;72379;50.880;4.350;2024-03-08T06:26:57;47.83;;;21.57;;
21337;SDS011;72379;50.880;4.350;2024-03-08T06:29:23;52.70;;;21.70;;
21337;SDS011;72379;50.880;4.350;2024-03-08T06:31:49;51.87;;;22.00;;
21337;SDS011;72379;50.880;4.350;2024-03-08T06:34:15;47.57;;;18.97;;
21337;SDS011;72379;50.880;4.350;2024-03-08T06:36:43;51.83;;;21.87;;
21337;SDS011;72379;50.880;4.350;2024-03-08T06:39:09;43.70;;;19.30;;
21337;SDS011;72379;50.880;4.350;2024-03-08T06:41:36;55.37;;;22.93;;
21337;SDS011;72379;50.880;4.350;2024-03-08T06:44:01;49.83;;;20.70;;
21337;SDS011;72379;50.880;4.350;2024-03-08T06:46:28;48.20;;;21.13;;
21337;SDS011;72379;50.880;4.350;2024-03-08T06:48:54;54.23;;;20.63;;
21337;SDS011;72379;50.880;4.350;2024-03-08T06:51:21;50.13;;;21.70;;
21337;SDS011;72379;50.880;4.350;2024-03-08T06:53:47;42.00;;;18.93;;
21337;SDS011;72379;50.880;4.350;2024-03-08T06:56:14;49.93;;;21.43;;
21337;SDS011;72379;50.880;4.350;2024-03-08T06:58:40;48.93;;;22.60;;
21337;SDS011;72379;50.880;4.350;2024-03-08T07:01:07;48.20;;;21.57;;
21337;SDS011;72379;50.880;4.350;2024-03-08T07:03:40;55.20;;;22.83;;
21337;SDS011;72379;50.880;4.350;2024-03-08T07:06:09;50.33;;;23.27;;
21337;SDS011;72379;50.880;4.350;2024-03-08T07:08:35;50.93;;;22.87;;
21337;SDS011;72379;50.880;4.350;2024-03-08T07:11:01;51.63;;;21.53;;
21337;SDS011;72379;50.880;4.350;2024-03-08T07:13:28;41.27;;;17.50;;
21337;SDS011;72379;50.880;4.350;2024-03-08T07:15:54;31.83;;;14.77;;
21337;SDS011;72379;50.880;4.350;2024-03-08T07:18:20;47.67;;;19.90;;
21337;SDS011;72379;50.880;4.350;2024-03-08T07:20:47;48.17;;;20.20;;
21337;SDS011;72379;50.880;4.350;2024-03-08T07:23:16;50.90;;;20.53;;
21337;SDS011;72379;50.880;4.350;2024-03-08T07:26:04;45.47;;;21.30;;
21337;SDS011;72379;50.880;4.350;2024-03-08T07:28:29;46.00;;;21.30;;
21337;SDS011;72379;50.880;4.350;2024-03-08T07:30:57;47.37;;;20.10;;
21337;SDS011;72379;50.880;4.350;2024-03-08T07:33:42;50.27;;;19.33;;
21337;SDS011;72379;50.880;4.350;2024-03-08T07:36:09;42.83;;;19.03;;
21337;SDS011;72379;50.880;4.350;2024-03-08T07:38:34;48.17;;;20.47;;
21337;SDS011;72379;50.880;4.350;2024-03-08T07:41:00;48.10;;;21.67;;
21337;SDS011;72379;50.880;4.350;2024-03-08T07:43:26;46.47;;;20.00;;
21337;SDS011;72379;50.880;4.350;2024-03-08T07:45:52;47.80;;;19.40;;
21337;SDS011;72379;50.880;4.350;2024-03-08T07:48:20;44.13;;;20.57;;
21337;SDS011;72379;50.880;4.350;2024-03-08T07:50:46;32.10;;;14.00;;
21337;SDS011;72379;50.880;4.350;2024-03-08T07:53:13;44.43;;;16.00;;
21337;SDS011;72379;50.880;4.350;2024-03-08T07:55:40;45.47;;;20.63;;
21337;SDS011;72379;50.880;4.350;2024-03-08T07:58:07;43.77;;;20.20;;
21337;SDS011;72379;50.880;4.350;2024-03-08T08:00:36;22.40;;;8.30;;
21337;SDS011;72379;50.880;4.350;2024-03-08T08:03:02;44.90;;;18.90;;
21337;SDS011;72379;50.880;4.350;2024-03-08T08:05:28;35.97;;;16.30;;
21337;SDS011;72379;50.880;4.350;2024-03-08T08:07:54;28.60;;;13.67;;
21337;SDS011;72379;50.880;4.350;2024-03-08T08:10:21;47.23;;;20.53;;
21337;SDS011;72379;50.880;4.350;2024-03-08T08:12:50;46.63;;;20.30;;
21337;SDS011;72379;50.880;4.350;2024-03-08T08:15:16;34.70;;;15.53;;
21337;SDS011;72379;50.880;4.350;2024-03-08T08:17:44;43.80;;;18.07;;
21337;SDS011;72379;50.880;4.350;2024-03-08T08:20:10;35.50;;;14.43;;
21337;SDS011;72379;50.880;4.350;2024-03-08T08:22:38;30.90;;;15.57;;
21337;SDS011;72379;50.880;4.350;2024-03-08T08:25:08;41.03;;;19.57;;
21337;SDS011;72379;50.880;4.350;2024-03-08T08:27:38;40.40;;;17.57;;
21337;SDS011;72379;50.880;4.350;2024-03-08T08:30:10;42.17;;;19.33;;
21337;SDS011;72379;50.880;4.350;2024-03-08T08:32:36;46.13;;;22.47;;
21337;SDS011;72379;50.880;4.350;2024-03-08T08:35:04;45.50;;;18.77;;
21337;SDS011;72379;50.880;4.350;2024-03-08T08:37:31;35.40;;;16.50;;
21337;SDS011;72379;50.880;4.350;2024-03-08T08:39:57;35.87;;;15.37;;
21337;SDS011;72379;50.880;4.350;2024-03-08T08:42:23;38.20;;;19.70;;
21337;SDS011;72379;50.880;4.350;2024-03-08T08:44:49;36.53;;;15.40;;
21337;SDS011;72379;50.880;4.350;2024-03-08T08:47:15;39.40;;;18.33;;
21337;SDS011;72379;50.880;4.350;2024-03-08T08:49:44;37.73;;;18.70;;
21337;SDS011;72379;50.880;4.350;2024-03-08T08:52:14;41.73;;;18.50;;
21337;SDS011;72379;50.880;4.350;2024-03-08T08:54:41;38.37;;;18.73;;
21337;SDS011;72379;50.880;4.350;2024-03-08T08:57:07;34.93;;;18.33;;
21337;SDS011;72379;50.880;4.350;2024-03-08T08:59:33;36.53;;;18.50;;
21337;SDS011;72379;50.880;4.350;2024-03-08T09:02:04;35.20;;;17.53;;
21337;SDS011;72379;50.880;4.350;2024-03-08T09:04:31;29.67;;;13.23;;
21337;SDS011;72379;50.880;4.350;2024-03-08T09:06:57;36.83;;;18.40;;
21337;SDS011;72379;50.880;4.350;2024-03-08T09:09:23;39.47;;;18.00;;
21337;SDS011;72379;50.880;4.350;2024-03-08T09:11:50;39.63;;;16.30;;
21337;SDS011;72379;50.880;4.350;2024-03-08T09:14:19;46.87;;;9.47;;
21337;SDS011;72379;50.880;4.350;2024-03-08T09:16:46;34.87;;;16.00;;
21337;SDS011;72379;50.880;4.350;2024-03-08T09:19:12;36.47;;;16.93;;
21337;SDS011;72379;50.880;4.350;2024-03-08T09:21:38;30.57;;;11.03;;
21337;SDS011;72379;50.880;4.350;2024-03-08T09:24:05;35.93;;;16.37;;
21337;SDS011;72379;50.880;4.350;2024-03-08T09:26:32;35.87;;;17.37;;
21337;SDS011;72379;50.880;4.350;2024-03-08T09:28:58;22.77;;;9.93;;
21337;SDS011;72379;50.880;4.350;2024-03-08T09:31:24;33.40;;;15.87;;
21337;SDS011;72379;50.880;4.350;2024-03-08T09:33:51;14.73;;;8.30;;
21337;SDS011;72379;50.880;4.350;2024-03-08T09:36:19;36.53;;;17.07;;
21337;SDS011;72379;50.880;4.350;2024-03-08T09:38:45;34.83;;;17.40;;
21337;SDS011;72379;50.880;4.350;2024-03-08T09:41:13;30.53;;;16.43;;
21337;SDS011;72379;50.880;4.350;2024-03-08T09:43:39;32.87;;;16.40;;
21337;SDS011;72379;50.880;4.350;2024-03-08T09:46:04;15.17;;;7.50;;
21337;SDS011;72379;50.880;4.350;2024-03-08T09:48:31;31.57;;;14.53;;
21337;SDS011;72379;50.880;4.350;2024-03-08T09:50:58;32.87;;;17.07;;
21337;SDS011;72379;50.880;4.350;2024-03-08T09:53:24;34.27;;;14.67;;
21337;SDS011;72379;50.880;4.350;2024-03-08T09:55:50;35.70;;;16.93;;
21337;SDS011;72379;50.880;4.350;2024-03-08T09:58:17;31.53;;;16.67;;
21337;SDS011;72379;50.880;4.350;2024-03-08T10:01:07;36.23;;;16.20;;
21337;SDS011;72379;50.880;4.350;2024-03-08T10:03:33;29.83;;;14.33;;
21337;SDS011;72379;50.880;4.350;2024-03-08T10:06:00;33.47;;;17.93;;
21337;SDS011;72379;50.880;4.350;2024-03-08T10:08:26;30.43;;;12.57;;
21337;SDS011;72379;50.880;4.350;2024-03-08T10:10:54;31.17;;;17.07;;
21337;SDS011;72379;50.880;4.350;2024-03-08T10:13:24;33.80;;;16.57;;
21337;SDS011;72379;50.880;4.350;2024-03-08T10:15:52;32.37;;;15.37;;
21337;SDS011;72379;50.880;4.350;2024-03-08T10:18:19;32.70;;;16.73;;
21337;SDS011;72379;50.880;4.350;2024-03-08T10:20:45;24.97;;;11.53;;
21337;SDS011;72379;50.880;4.350;2024-03-08T10:23:11;37.93;;;16.60;;
21337;SDS011;72379;50.880;4.350;2024-03-08T10:25:37;28.73;;;15.63;;
21337;SDS011;72379;50.880;4.350;2024-03-08T10:28:03;32.17;;;15.60;;
21337;SDS011;72379;50.880;4.350;2024-03-08T10:30:29;33.87;;;16.60;;
21337;SDS011;72379;50.880;4.350;2024-03-08T10:32:55;29.70;;;14.47;;
21337;SDS011;72379;50.880;4.350;2024-03-08T10:35:27;30.97;;;16.60;;
21337;SDS011;72379;50.880;4.350;2024-03-08T10:37:53;31.60;;;15.63;;
21337;SDS011;72379;50.880;4.350;2024-03-08T10:40:26;29.20;;;14.97;;
21337;SDS011;72379;50.880;4.350;2024-03-08T10:42:53;28.20;;;14.77;;
21337;SDS011;72379;50.880;4.350;2024-03-08T10:50:41;34.90;;;16.07;;
21337;SDS011;72379;50.880;4.350;2024-03-08T10:53:10;30.03;;;15.47;;
21337;SDS011;72379;50.880;4.350;2024-03-08T10:55:39;30.27;;;14.70;;
21337;SDS011;72379;50.880;4.350;2024-03-08T10:58:08;30.93;;;15.73;;
21337;SDS011;72379;50.880;4.350;2024-03-08T11:00:35;29.83;;;14.30;;
21337;SDS011;72379;50.880;4.350;2024-03-08T11:03:02;20.90;;;10.30;;
21337;SDS011;72379;50.880;4.350;2024-03-08T11:10:49;24.30;;;11.00;;
21337;SDS011;72379;50.880;4.350;2024-03-08T11:13:37;31.20;;;15.97;;
21337;SDS011;72379;50.880;4.350;2024-03-08T11:16:50;30.17;;;15.97;;
21337;SDS011;72379;50.880;4.350;2024-03-08T11:18:54;26.77;;;13.43;;
21337;SDS011;72379;50.880;4.350;2024-03-08T11:21:32;30.77;;;15.53;;
21337;SDS011;72379;50.880;4.350;2024-03-08T11:24:01;34.13;;;16.70;;
21337;SDS011;72379;50.880;4.350;2024-03-08T11:26:26;31.80;;;14.90;;
21337;SDS011;72379;50.880;4.350;2024-03-08T11:28:52;28.13;;;15.83;;
21337;SDS011;72379;50.880;4.350;2024-03-08T11:33:46;30.47;;;14.80;;
21337;SDS011;72379;50.880;4.350;2024-03-08T11:36:14;28.87;;;13.53;;
21337;SDS011;72379;50.880;4.350;2024-03-08T11:38:50;25.70;;;13.80;;
21337;SDS011;72379;50.880;4.350;2024-03-08T11:41:18;27.60;;;14.30;;
21337;SDS011;72379;50.880;4.350;2024-03-08T11:43:45;37.27;;;17.10;;
21337;SDS011;72379;50.880;4.350;2024-03-08T11:46:12;30.93;;;17.20;;
21337;SDS011;72379;50.880;4.350;2024-03-08T11:48:42;30.00;;;14.77;;
21337;SDS011;72379;50.880;4.350;2024-03-08T11:51:12;25.97;;;13.53;;
21337;SDS011;72379;50.880;4.350;2024-03-08T11:53:39;31.40;;;16.13;;
21337;SDS011;72379;50.880;4.350;2024-03-08T11:56:12;33.20;;;16.07;;
21337;SDS011;72379;50.880;4.350;2024-03-08T11:58:39;25.60;;;12.37;;
21337;SDS011;72379;50.880;4.350;2024-03-08T12:01:06;25.70;;;14.13;;
21337;SDS011;72379;50.880;4.350;2024-03-08T12:03:39;30.10;;;15.03;;
21337;SDS011;72379;50.880;4.350;2024-03-08T12:06:07;29.97;;;16.07;;
21337;SDS011;72379;50.880;4.350;2024-03-08T12:08:35;33.23;;;16.33;;
21337;SDS011;72379;50.880;4.350;2024-03-08T12:11:03;28.47;;;14.63;;
21337;SDS011;72379;50.880;4.350;2024-03-08T12:13:30;28.50;;;14.63;;
21337;SDS011;72379;50.880;4.350;2024-03-08T12:16:02;29.97;;;15.53;;
21337;SDS011;72379;50.880;4.350;2024-03-08T12:18:33;28.73;;;14.93;;
21337;SDS011;72379;50.880;4.350;2024-03-08T12:21:06;23.17;;;11.37;;
21337;SDS011;72379;50.880;4.350;2024-03-08T12:23:36;26.60;;;14.50;;
21337;SDS011;72379;50.880;4.350;2024-03-08T12:26:09;29.87;;;13.37;;
21337;SDS011;72379;50.880;4.350;2024-03-08T12:28:38;27.30;;;14.50;;
21337;SDS011;72379;50.880;4.350;2024-03-08T12:31:06;26.77;;;14.40;;
21337;SDS011;72379;50.880;4.350;2024-03-08T12:33:37;30.07;;;14.43;;
21337;SDS011;72379;50.880;4.350;2024-03-08T12:36:16;28.17;;;13.63;;
21337;SDS011;72379;50.880;4.350;2024-03-08T12:38:46;24.60;;;12.30;;
21337;SDS011;72379;50.880;4.350;2024-03-08T12:41:15;30.07;;;13.77;;
21337;SDS011;72379;50.880;4.350;2024-03-08T12:43:43;24.67;;;12.10;;
21337;SDS011;72379;50.880;4.350;2024-03-08T12:46:14;18.50;;;8.07;;
21337;SDS011;72379;50.880;4.350;2024-03-08T12:48:40;31.53;;;15.07;;
21337;SDS011;72379;50.880;4.350;2024-03-08T12:51:06;27.17;;;14.77;;
21337;SDS011;72379;50.880;4.350;2024-03-08T12:53:32;17.30;;;7.93;;
21337;SDS011;72379;50.880;4.350;2024-03-08T12:55:58;27.30;;;15.10;;
21337;SDS011;72379;50.880;4.350;2024-03-08T12:58:24;27.30;;;15.50;;
21337;SDS011;72379;50.880;4.350;2024-03-08T13:00:51;24.50;;;13.37;;
21337;SDS011;72379;50.880;4.350;2024-03-08T13:03:17;27.40;;;13.53;;
21337;SDS011;72379;50.880;4.350;2024-03-08T13:05:43;21.10;;;11.07;;
21337;SDS011;72379;50.880;4.350;2024-03-08T13:08:09;28.27;;;15.93;;
21337;SDS011;72379;50.880;4.350;2024-03-08T13:10:38;31.87;;;15.40;;
21337;SDS011;72379;50.880;4.350;2024-03-08T13:13:05;27.03;;;14.17;;
21337;SDS011;72379;50.880;4.350;2024-03-08T13:15:30;29.43;;;14.97;;
21337;SDS011;72379;50.880;4.350;2024-03-08T13:17:58;28.47;;;15.70;;
21337;SDS011;72379;50.880;4.350;2024-03-08T13:20:25;28.07;;;16.37;;
21337;SDS011;72379;50.880;4.350;2024-03-08T13:22:53;28.20;;;15.33;;
21337;SDS011;72379;50.880;4.350;2024-03-08T13:25:20;25.03;;;13.57;;
21337;SDS011;72379;50.880;4.350;2024-03-08T13:27:46;33.30;;;15.53;;
21337;SDS011;72379;50.880;4.350;2024-03-08T13:30:14;28.37;;;15.93;;
21337;SDS011;72379;50.880;4.350;2024-03-08T13:32:43;24.13;;;13.50;;
21337;SDS011;72379;50.880;4.350;2024-03-08T13:35:12;28.03;;;15.10;;
21337;SDS011;72379;50.880;4.350;2024-03-08T13:37:41;20.03;;;11.17;;
21337;SDS011;72379;50.880;4.350;2024-03-08T13:40:08;22.37;;;10.83;;
21337;SDS011;72379;50.880;4.350;2024-03-08T13:42:41;24.37;;;14.30;;
21337;SDS011;72379;50.880;4.350;2024-03-08T13:45:08;27.33;;;14.03;;
21337;SDS011;72379;50.880;4.350;2024-03-08T13:47:41;25.73;;;11.87;;
21337;SDS011;72379;50.880;4.350;2024-03-08T13:50:08;26.43;;;13.77;;
21337;SDS011;72379;50.880;4.350;2024-03-08T13:52:38;27.27;;;15.03;;
21337;SDS011;72379;50.880;4.350;2024-03-08T13:55:05;24.97;;;15.20;;
21337;SDS011;72379;50.880;4.350;2024-03-08T13:57:31;27.60;;;14.70;;
21337;SDS011;72379;50.880;4.350;2024-03-08T13:59:58;24.23;;;15.00;;
21337;SDS011;72379;50.880;4.350;2024-03-08T14:02:24;27.57;;;14.07;;
21337;SDS011;72379;50.880;4.350;2024-03-08T14:04:54;28.73;;;14.03;;
21337;SDS011;72379;50.880;4.350;2024-03-08T14:07:23;29.17;;;15.00;;
21337;SDS011;72379;50.880;4.350;2024-03-08T14:09:49;25.90;;;14.47;;
21337;SDS011;72379;50.880;4.350;2024-03-08T14:12:15;24.77;;;13.13;;
21337;SDS011;72379;50.880;4.350;2024-03-08T14:14:41;24.47;;;13.70;;
21337;SDS011;72379;50.880;4.350;2024-03-08T14:17:10;27.00;;;15.00;;
21337;SDS011;72379;50.880;4.350;2024-03-08T14:19:42;26.90;;;17.23;;
21337;SDS011;72379;50.880;4.350;2024-03-08T14:22:08;25.03;;;15.17;;
21337;SDS011;72379;50.880;4.350;2024-03-08T14:24:35;31.43;;;15.47;;
21337;SDS011;72379;50.880;4.350;2024-03-08T14:27:02;25.57;;;15.13;;
21337;SDS011;72379;50.880;4.350;2024-03-08T14:29:28;25.73;;;13.87;;
21337;SDS011;72379;50.880;4.350;2024-03-08T14:34:31;28.23;;;15.60;;
21337;SDS011;72379;50.880;4.350;2024-03-08T14:37:00;32.13;;;16.33;;
21337;SDS011;72379;50.880;4.350;2024-03-08T14:39:26;27.33;;;13.93;;
21337;SDS011;72379;50.880;4.350;2024-03-08T14:41:54;25.97;;;15.03;;